Terminal Aerodrome Forecast
Issued by NWS Paducah, KY

Home | Current Version | Previous Version | Text Only | Print | Product List | Glossary On
Versions: 1 2 3 4 5 6 7 8 9 10 11 12 13 14 15 16 17 18 19 20 21
527
FTUS43 KPAH 280520
TAFPAH
TAF
KPAH 280520Z 2806/2906 VRB04KT P6SM SCT100 BKN250
     FM281300 14010G15KT P6SM SCT050 BKN100
     FM281900 18012G20KT P6SM VCTS SCT025CB BKN050 PROB30 2819/2824
      3SM -TSRA OVC015CB
     FM290400 18012KT 5SM -SHRA OVC015=

USA.gov is the U.S. government's official web portal to all federal, state and local government web resources and services.